createdAt,value
2023-02-02T00:02:13.485Z,5.57
2023-02-02T00:05:15.027Z,5.15
2023-02-02T00:08:17.910Z,4.65
2023-02-02T00:11:19.756Z,4.00
2023-02-02T00:14:21.577Z,5.10
2023-02-02T00:17:23.080Z,4.88
2023-02-02T00:20:24.645Z,4.93
2023-02-02T00:23:26.113Z,4.47
2023-02-02T00:26:28.052Z,4.32
2023-02-02T00:29:31.277Z,4.63
2023-02-02T00:32:32.775Z,4.10
2023-02-02T00:35:34.291Z,4.40
2023-02-02T00:38:37.781Z,4.80
2023-02-02T00:41:39.247Z,4.28
2023-02-02T00:44:59.446Z,3.78
2023-02-02T00:48:01.207Z,4.75
2023-02-02T00:51:02.701Z,4.60
2023-02-02T00:54:04.852Z,4.15
2023-02-02T00:57:06.809Z,3.85
2023-02-02T01:00:12.151Z,4.82
2023-02-02T01:03:13.654Z,4.47
2023-02-02T01:06:15.536Z,3.80
2023-02-02T01:09:17.070Z,4.10
2023-02-02T01:12:18.658Z,4.50
2023-02-02T01:15:20.131Z,4.00
2023-02-02T01:18:21.654Z,4.35
2023-02-02T01:21:23.645Z,4.93
2023-02-02T01:24:25.337Z,4.50
2023-02-02T01:27:27.461Z,4.93
2023-02-02T01:30:28.937Z,4.13
2023-02-02T01:33:30.408Z,4.07
2023-02-02T01:36:31.911Z,4.78
2023-02-02T01:39:34.340Z,4.28
2023-02-02T01:42:35.904Z,4.68
2023-02-02T01:45:37.445Z,4.30
2023-02-02T01:48:41.788Z,4.50
2023-02-02T01:51:54.879Z,4.38
2023-02-02T01:55:08.227Z,4.45
2023-02-02T01:58:17.097Z,4.03
2023-02-02T02:01:18.696Z,4.20
2023-02-02T02:04:21.403Z,3.60
2023-02-02T02:07:23.717Z,4.03
2023-02-02T02:10:25.310Z,4.65
2023-02-02T02:13:48.140Z,3.72
2023-02-02T02:16:55.176Z,3.80
2023-02-02T02:20:40.705Z,3.50
2023-02-02T02:24:19.915Z,3.80
2023-02-02T02:27:57.596Z,3.03
2023-02-02T02:31:18.156Z,3.33
2023-02-02T02:34:38.540Z,3.65
2023-02-02T02:37:53.747Z,4.30
2023-02-02T02:41:01.467Z,3.45
2023-02-02T02:44:08.315Z,3.33
2023-02-02T02:47:10.685Z,2.92
2023-02-02T02:50:12.343Z,3.67
2023-02-02T02:53:24.411Z,2.88
2023-02-02T02:56:36.034Z,3.72
2023-02-02T02:59:44.620Z,3.30
2023-02-02T03:03:11.048Z,3.80
2023-02-02T03:06:16.770Z,3.78
2023-02-02T03:09:35.972Z,3.83
2023-02-02T03:12:49.092Z,3.70
2023-02-02T03:15:50.589Z,3.75
2023-02-02T03:18:52.115Z,4.18
2023-02-02T03:21:53.600Z,4.10
2023-02-02T03:24:55.065Z,4.30
2023-02-02T03:27:58.014Z,3.97
2023-02-02T03:31:01.318Z,4.20
2023-02-02T03:34:02.883Z,5.03
2023-02-02T03:37:04.416Z,4.97
2023-02-02T03:40:07.124Z,4.03
2023-02-02T03:43:08.656Z,4.82
2023-02-02T03:46:10.313Z,4.47
2023-02-02T03:49:11.896Z,4.55
2023-02-02T03:52:13.382Z,4.63
2023-02-02T03:55:14.941Z,4.43
2023-02-02T03:58:17.490Z,4.88
2023-02-02T04:01:27.900Z,4.30
2023-02-02T04:04:29.433Z,4.53
2023-02-02T04:07:30.899Z,5.20
2023-02-02T04:10:32.383Z,4.60
2023-02-02T04:13:33.866Z,4.60
2023-02-02T04:16:37.579Z,4.53
2023-02-02T04:19:39.113Z,4.95
2023-02-02T04:22:40.675Z,5.22
2023-02-02T04:25:49.506Z,4.93
2023-02-02T04:28:51.821Z,4.93
2023-02-02T04:31:54.491Z,4.50
2023-02-02T04:34:56.066Z,3.85
2023-02-02T04:37:57.511Z,5.20
2023-02-02T04:40:59.024Z,4.43
2023-02-02T04:44:00.435Z,3.88
2023-02-02T04:47:02.008Z,4.47
2023-02-02T04:50:03.727Z,4.28
2023-02-02T04:53:05.645Z,5.07
2023-02-02T04:56:13.985Z,3.55
2023-02-02T04:59:15.519Z,4.95
2023-02-02T05:02:17.056Z,4.38
2023-02-02T05:05:20.342Z,5.30
2023-02-02T05:08:21.869Z,5.33
2023-02-02T05:11:24.272Z,4.97
2023-02-02T05:14:25.811Z,4.38
2023-02-02T05:17:27.806Z,4.97
2023-02-02T05:20:29.248Z,5.22
2023-02-02T05:23:30.842Z,3.80
2023-02-02T05:26:32.430Z,4.00
2023-02-02T05:29:33.899Z,4.72
2023-02-02T05:32:35.332Z,4.55
2023-02-02T05:35:37.205Z,4.82
2023-02-02T05:38:39.124Z,5.35
2023-02-02T05:41:40.777Z,4.65
2023-02-02T05:44:42.212Z,4.32
2023-02-02T05:47:43.661Z,4.75
2023-02-02T05:50:49.491Z,4.55
2023-02-02T05:53:51.049Z,4.75
2023-02-02T05:56:54.607Z,4.70
2023-02-02T05:59:56.157Z,4.45
2023-02-02T06:02:57.718Z,4.70
2023-02-02T06:05:59.653Z,4.72
2023-02-02T06:09:01.788Z,4.95
2023-02-02T06:12:03.775Z,5.20
2023-02-02T06:15:06.230Z,4.03
2023-02-02T06:18:08.318Z,3.75
2023-02-02T06:21:10.050Z,4.57
2023-02-02T06:24:11.587Z,4.35
2023-02-02T06:27:13.048Z,4.07
2023-02-02T06:30:15.331Z,4.65
2023-02-02T06:33:16.993Z,4.00
2023-02-02T06:36:18.623Z,4.10
2023-02-02T06:39:20.177Z,4.10
2023-02-02T06:42:22.157Z,4.35
2023-02-02T06:45:25.048Z,4.90
2023-02-02T06:48:27.352Z,5.20
2023-02-02T06:51:28.903Z,4.53
2023-02-02T06:54:30.462Z,4.10
2023-02-02T06:57:31.955Z,4.20
2023-02-02T07:00:36.864Z,3.55
2023-02-02T07:03:38.731Z,3.80
2023-02-02T07:06:40.273Z,3.85
2023-02-02T07:09:41.767Z,4.72
2023-02-02T07:12:43.241Z,4.47
2023-02-02T07:15:44.905Z,4.90
2023-02-02T07:18:48.256Z,4.88
2023-02-02T07:21:49.713Z,5.00
2023-02-02T07:24:51.287Z,4.50
2023-02-02T07:27:53.998Z,4.78
2023-02-02T07:30:55.621Z,4.80
2023-02-02T07:33:57.273Z,5.03
2023-02-02T07:36:58.748Z,4.70
2023-02-02T07:40:00.168Z,5.40
2023-02-02T07:43:02.496Z,4.50
2023-02-02T07:46:08.110Z,4.88
2023-02-02T07:49:14.521Z,5.07
2023-02-02T07:52:16.069Z,4.05
2023-02-02T07:55:17.549Z,4.68
2023-02-02T07:58:19.000Z,4.82
2023-02-02T08:01:22.949Z,5.15
2023-02-02T08:07:26.097Z,4.10
2023-02-02T08:10:27.632Z,4.43
2023-02-02T08:13:29.195Z,4.72
2023-02-02T08:16:32.250Z,5.60
2023-02-02T08:19:33.789Z,4.63
2023-02-02T08:22:35.339Z,5.30
2023-02-02T08:25:36.864Z,5.18
2023-02-02T08:28:39.775Z,5.18
2023-02-02T08:31:44.033Z,5.13
2023-02-02T08:34:48.774Z,5.75
2023-02-02T08:37:50.381Z,5.10
2023-02-02T08:40:52.576Z,5.00
2023-02-02T08:43:54.157Z,5.35
2023-02-02T08:46:56.369Z,4.78
2023-02-02T08:49:58.058Z,4.45
2023-02-02T08:52:59.487Z,4.82
2023-02-02T08:56:10.881Z,3.47
2023-02-02T08:59:12.390Z,4.18
2023-02-02T09:02:14.088Z,3.53
2023-02-02T09:05:15.658Z,4.30
2023-02-02T09:08:17.294Z,3.78
2023-02-02T09:11:19.780Z,3.13
2023-02-02T09:14:21.234Z,4.00
2023-02-02T09:17:24.069Z,3.85
2023-02-02T09:20:25.483Z,3.10
2023-02-02T09:23:30.434Z,3.75
2023-02-02T09:26:32.053Z,3.45
2023-02-02T09:29:33.695Z,4.30
2023-02-02T09:32:35.325Z,3.25
2023-02-02T09:35:36.822Z,2.92
2023-02-02T09:38:39.796Z,3.78
2023-02-02T09:41:41.198Z,4.22
2023-02-02T09:44:55.885Z,3.40
2023-02-02T09:48:10.740Z,3.95
2023-02-02T09:51:20.729Z,4.10
2023-02-02T09:54:28.593Z,4.15
2023-02-02T09:57:38.217Z,4.38
2023-02-02T10:00:46.044Z,3.88
2023-02-02T10:03:54.013Z,4.65
2023-02-02T10:07:00.588Z,4.93
2023-02-02T10:10:40.122Z,3.63
2023-02-02T10:13:43.816Z,3.22
2023-02-02T10:16:48.444Z,3.50
2023-02-02T10:19:55.507Z,3.28
2023-02-02T10:23:04.025Z,3.83
2023-02-02T10:26:19.012Z,3.63
2023-02-02T10:29:23.648Z,3.15
2023-02-02T10:32:34.952Z,3.80
2023-02-02T10:36:00.345Z,3.20
2023-02-02T10:39:13.386Z,3.35
2023-02-02T10:42:28.947Z,3.42
2023-02-02T10:45:30.519Z,4.03
2023-02-02T10:48:35.786Z,3.20
2023-02-02T10:51:46.613Z,3.10
2023-02-02T10:55:07.498Z,3.60
2023-02-02T10:58:11.951Z,3.92
2023-02-02T11:01:17.970Z,3.33
2023-02-02T11:04:40.391Z,3.90
2023-02-02T11:07:41.942Z,4.20
2023-02-02T11:10:45.275Z,3.25
2023-02-02T11:13:53.542Z,3.47
2023-02-02T11:17:04.133Z,3.88
2023-02-02T11:20:32.524Z,3.60
2023-02-02T11:23:34.061Z,3.30
2023-02-02T11:27:01.862Z,3.15
2023-02-02T11:30:12.858Z,3.53
2023-02-02T11:33:34.738Z,4.15
2023-02-02T11:36:36.677Z,4.35
2023-02-02T11:39:39.071Z,2.70
2023-02-02T11:42:46.853Z,3.78
2023-02-02T11:45:55.618Z,3.10
2023-02-02T11:49:02.662Z,3.83
2023-02-02T11:52:14.134Z,3.33
2023-02-02T11:55:22.967Z,4.38
2023-02-02T11:58:30.351Z,4.05
2023-02-02T12:01:39.733Z,3.85
2023-02-02T12:04:41.346Z,4.00
2023-02-02T12:07:44.446Z,4.32
2023-02-02T12:10:58.836Z,3.03
2023-02-02T12:14:24.744Z,3.75
2023-02-02T12:17:42.102Z,3.10
2023-02-02T12:21:04.723Z,2.72
2023-02-02T12:24:31.208Z,2.92
2023-02-02T12:27:41.831Z,3.47
2023-02-02T12:31:02.600Z,3.00
2023-02-02T12:34:27.922Z,3.47
2023-02-02T12:37:46.150Z,3.60
2023-02-02T12:41:10.533Z,3.65
2023-02-02T12:44:14.746Z,3.70
2023-02-02T12:50:31.559Z,4.03
2023-02-02T12:54:32.575Z,3.55
2023-02-02T12:57:32.812Z,3.92
2023-02-02T13:01:01.830Z,3.67
2023-02-02T13:04:37.189Z,4.05
2023-02-02T13:07:42.890Z,5.03
2023-02-02T13:10:53.103Z,4.10
2023-02-02T13:13:56.959Z,4.70
2023-02-02T13:17:09.443Z,4.05
2023-02-02T13:20:22.853Z,4.10
2023-02-02T13:23:35.774Z,4.88
2023-02-02T13:26:42.147Z,4.30
2023-02-02T13:30:01.799Z,4.68
2023-02-02T13:33:12.569Z,5.00
2023-02-02T13:36:25.764Z,4.38
2023-02-02T13:39:38.599Z,5.43
2023-02-02T13:42:49.280Z,4.57
2023-02-02T13:46:04.997Z,4.20
2023-02-02T13:49:20.495Z,4.43
2023-02-02T13:52:47.415Z,3.70
2023-02-02T13:56:14.382Z,3.72
2023-02-02T13:59:31.423Z,3.80
2023-02-02T14:02:43.965Z,3.70
2023-02-02T14:06:03.794Z,3.70
2023-02-02T14:09:05.918Z,4.50
2023-02-02T14:12:10.285Z,4.88
2023-02-02T14:15:13.314Z,4.07
2023-02-02T14:18:54.072Z,4.40
2023-02-02T14:22:00.722Z,4.57
2023-02-02T14:25:02.185Z,4.63
2023-02-02T14:28:24.733Z,4.18
2023-02-02T14:31:31.406Z,3.85
2023-02-02T14:34:40.055Z,3.65
2023-02-02T14:38:01.092Z,3.95
2023-02-02T14:41:38.161Z,5.18
2023-02-02T14:45:11.344Z,5.15
2023-02-02T14:48:18.815Z,4.60
2023-02-02T14:51:26.849Z,4.25
2023-02-02T14:54:41.399Z,4.15
2023-02-02T14:57:42.948Z,4.15
2023-02-02T15:01:01.578Z,4.07
2023-02-02T15:04:21.356Z,4.68
2023-02-02T15:07:22.827Z,3.70
2023-02-02T15:10:51.913Z,3.80
2023-02-02T15:13:59.291Z,5.38
2023-02-02T15:17:12.748Z,4.18
2023-02-02T15:20:26.313Z,5.80
2023-02-02T15:23:33.599Z,5.53
2023-02-02T15:26:41.332Z,4.40
2023-02-02T15:29:46.147Z,5.05
2023-02-02T15:32:48.643Z,17.08
2023-02-02T15:35:52.466Z,8.95
2023-02-02T15:38:58.400Z,4.55
2023-02-02T15:42:23.598Z,4.03
2023-02-02T15:45:27.780Z,2.88
2023-02-02T15:48:32.978Z,4.82
2023-02-02T15:51:34.574Z,4.13
2023-02-02T15:54:38.189Z,3.50
2023-02-02T15:57:45.439Z,2.90
2023-02-02T16:00:56.321Z,3.72
2023-02-02T16:04:17.117Z,3.38
2023-02-02T16:07:32.069Z,4.15
2023-02-02T16:10:35.244Z,3.60
2023-02-02T16:13:38.343Z,3.67
2023-02-02T16:16:40.327Z,3.60
2023-02-02T16:19:44.086Z,4.18
2023-02-02T16:22:47.098Z,4.35
2023-02-02T16:25:51.582Z,3.58
2023-02-02T16:28:53.576Z,3.67
2023-02-02T16:31:56.249Z,4.40
2023-02-02T16:34:58.702Z,4.22
2023-02-02T16:38:37.329Z,4.55
2023-02-02T16:41:38.873Z,3.80
2023-02-02T16:44:43.827Z,6.85
2023-02-02T16:47:45.348Z,7.78
2023-02-02T16:51:02.272Z,4.97
2023-02-02T16:54:06.480Z,3.85
2023-02-02T17:00:21.823Z,3.20
2023-02-02T17:03:33.127Z,3.33
2023-02-02T17:06:51.456Z,3.15
2023-02-02T17:10:13.958Z,3.10
2023-02-02T17:13:30.540Z,3.50
2023-02-02T17:16:32.078Z,3.40
2023-02-02T17:19:33.708Z,2.70
2023-02-02T17:22:40.398Z,3.05
2023-02-02T17:25:43.205Z,3.10
2023-02-02T17:28:44.824Z,3.22
2023-02-02T17:31:46.344Z,2.72
2023-02-02T17:34:47.855Z,3.20
2023-02-02T17:37:51.678Z,2.65
2023-02-02T17:40:54.997Z,2.92
2023-02-02T17:43:56.421Z,3.20
2023-02-02T17:46:57.839Z,3.40
2023-02-02T17:50:01.012Z,3.28
2023-02-02T17:53:02.981Z,2.92
2023-02-02T17:56:04.878Z,2.97
2023-02-02T17:59:06.867Z,3.17
2023-02-02T18:02:14.933Z,2.65
2023-02-02T18:05:19.721Z,3.50
2023-02-02T18:08:21.162Z,2.92
2023-02-02T18:11:23.114Z,3.95
2023-02-02T18:14:24.688Z,5.90
2023-02-02T18:17:26.233Z,4.38
2023-02-02T18:20:27.943Z,3.85
2023-02-02T18:23:29.409Z,4.03
2023-02-02T18:26:32.485Z,5.13
2023-02-02T18:29:34.060Z,4.40
2023-02-02T18:32:41.127Z,3.92
2023-02-02T18:35:47.336Z,5.15
2023-02-02T18:38:51.009Z,6.18
2023-02-02T18:41:52.584Z,3.65
2023-02-02T18:44:54.029Z,3.95
2023-02-02T18:47:55.493Z,5.03
2023-02-02T18:50:57.212Z,3.85
2023-02-02T18:54:01.258Z,5.28
2023-02-02T18:57:02.743Z,5.32
2023-02-02T19:00:05.386Z,4.28
2023-02-02T19:03:07.089Z,4.38
2023-02-02T19:06:27.996Z,5.10
2023-02-02T19:09:29.717Z,4.72
2023-02-02T19:12:31.216Z,4.65
2023-02-02T19:15:38.448Z,4.18
2023-02-02T19:18:39.897Z,4.10
2023-02-02T19:21:42.159Z,3.40
2023-02-02T19:24:43.688Z,3.80
2023-02-02T19:27:45.169Z,4.35
2023-02-02T19:30:46.741Z,3.90
2023-02-02T19:33:52.304Z,4.45
2023-02-02T19:36:53.847Z,3.95
2023-02-02T19:40:07.205Z,4.32
2023-02-02T19:43:26.168Z,3.10
2023-02-02T19:46:29.952Z,3.92
2023-02-02T19:49:34.192Z,4.03
2023-02-02T19:55:37.202Z,4.38
2023-02-02T19:58:38.788Z,3.63
2023-02-02T20:01:40.745Z,3.92
2023-02-02T20:04:42.205Z,4.05
2023-02-02T20:07:43.751Z,2.80
2023-02-02T20:10:46.157Z,3.38
2023-02-02T20:13:48.475Z,3.83
2023-02-02T20:17:00.841Z,3.10
2023-02-02T20:20:02.623Z,3.10
2023-02-02T20:23:15.679Z,3.50
2023-02-02T20:26:27.551Z,3.88
2023-02-02T20:29:41.323Z,3.28
2023-02-02T20:32:42.966Z,3.13
2023-02-02T20:35:44.490Z,3.35
2023-02-02T20:38:45.964Z,3.85
2023-02-02T20:41:48.220Z,3.65
2023-02-02T20:44:50.686Z,3.42
2023-02-02T20:47:52.422Z,3.28
2023-02-02T20:50:54.180Z,3.55
2023-02-02T20:53:55.683Z,2.95
2023-02-02T20:56:57.868Z,3.22
2023-02-02T20:59:59.701Z,3.00
2023-02-02T21:03:01.266Z,3.22
2023-02-02T21:06:02.826Z,2.92
2023-02-02T21:09:06.192Z,3.10
2023-02-02T21:12:07.698Z,3.50
2023-02-02T21:15:09.914Z,2.65
2023-02-02T21:18:11.418Z,2.47
2023-02-02T21:21:14.204Z,3.13
2023-02-02T21:24:15.861Z,2.15
2023-02-02T21:27:17.726Z,2.17
2023-02-02T21:30:19.404Z,2.83
2023-02-02T21:33:20.936Z,2.65
2023-02-02T21:36:34.342Z,2.45
2023-02-02T21:39:37.137Z,3.25
2023-02-02T21:42:38.643Z,2.30
2023-02-02T21:45:42.823Z,2.40
2023-02-02T21:48:46.019Z,2.42
2023-02-02T21:51:47.577Z,2.90
2023-02-02T21:54:49.313Z,2.25
2023-02-02T21:57:50.869Z,2.92
2023-02-02T22:00:54.895Z,2.53
2023-02-02T22:03:56.485Z,2.35
2023-02-02T22:07:15.119Z,2.45
2023-02-02T22:10:38.818Z,2.33
2023-02-02T22:13:40.362Z,2.20
2023-02-02T22:16:50.238Z,1.90
2023-02-02T22:20:01.173Z,1.88
2023-02-02T22:23:03.405Z,2.42
2023-02-02T22:26:05.864Z,2.03
2023-02-02T22:29:16.713Z,2.25
2023-02-02T22:32:18.195Z,2.20
2023-02-02T22:35:20.145Z,2.40
2023-02-02T22:38:23.920Z,2.30
2023-02-02T22:41:25.393Z,2.05
2023-02-02T22:44:26.894Z,2.33
2023-02-02T22:47:28.354Z,1.73
2023-02-02T22:50:31.269Z,2.50
2023-02-02T22:53:32.766Z,2.70
2023-02-02T22:56:34.200Z,2.90
2023-02-02T22:59:35.698Z,2.67
2023-02-02T23:02:37.780Z,3.50
2023-02-02T23:05:39.242Z,2.58
2023-02-02T23:08:40.768Z,3.13
2023-02-02T23:11:42.329Z,3.00
2023-02-02T23:14:43.732Z,3.20
2023-02-02T23:17:45.241Z,2.72
2023-02-02T23:20:48.735Z,3.08
2023-02-02T23:23:50.316Z,2.97
2023-02-02T23:26:51.751Z,2.60
2023-02-02T23:29:53.519Z,3.20
2023-02-02T23:32:54.938Z,3.63
2023-02-02T23:35:56.613Z,3.00
2023-02-02T23:38:58.075Z,3.40
2023-02-02T23:41:59.568Z,2.70
2023-02-02T23:45:01.209Z,2.33
2023-02-02T23:48:02.681Z,3.10
2023-02-02T23:51:04.281Z,3.00
2023-02-02T23:54:06.043Z,3.20
2023-02-02T23:57:07.559Z,3.58
